This is the latest recevied weather packets stored in our database for station/object 9W2CEW-1. If no packets are shown the sender has not sent any weather packets the latest 10 day(s).
| Time | Temp. | Humidity | Pressure | Rain* | Wind** | Luminosity | Snow |
|---|---|---|---|---|---|---|---|
| 1787628201 | 37.78° C | 45% | 1007.4 hPa | - | - | - | - |
| 1787627301 | 36.67° C | 49% | 1007.4 hPa | - | - | - | - |
| 1787626688 | 38.33° C | 37% | 1006.3 hPa | - | - | - | - |
| 1787626401 | 36.11° C | 50% | 1007.3 hPa | - | - | - | - |
| 1787625501 | 33.89° C | 56% | 1007.6 hPa | - | - | - | - |
| 1787624601 | 34.44° C | 55% | 1007.9 hPa | - | - | - | - |
| 1787623703 | 33.89° C | 56% | 1007.9 hPa | - | - | - | - |
| 1787622803 | 35° C | 53% | 1007.8 hPa | - | - | - | - |
| 1787622448 | 38.33° C | 37% | 1006.1 hPa | - | - | - | - |
| 1787621903 | 35° C | 53% | 1007.6 hPa | - | - | - | - |
| 1787621002 | 34.44° C | 54% | 1007.2 hPa | - | - | - | - |
| 1787620102 | 32.78° C | 60% | 1006.9 hPa | - | - | - | - |
| 1787619205 | 36.67° C | 40% | 1005.7 hPa | - | - | - | - |
| 1787619202 | 32.22° C | 60% | 1006.5 hPa | - | - | - | - |
| 1787618310 | 33.89° C | 56% | 1006.4 hPa | - | - | - | - |
| 1787617402 | 31.67° C | 65% | 1006.9 hPa | - | - | - | - |
| 1787616502 | 30.56° C | 69% | 1006.7 hPa | - | - | - | - |
| 1787615602 | 31.11° C | 65% | 1006.6 hPa | - | - | - | - |
| 1787614702 | 32.22° C | 62% | 1006.8 hPa | - | - | - | - |
| 1787614547 | 36.67° C | 39% | 1005.7 hPa | - | - | - | - |
| 1787613802 | 31.11° C | 62% | 1006.3 hPa | - | - | - | - |
| 1787612902 | 35° C | 47% | 1005.9 hPa | - | - | - | - |
| 1787612001 | 35.56° C | 47% | 1005.7 hPa | - | - | - | - |
| 1787611524 | 35.56° C | 40% | 1005.1 hPa | - | - | - | - |
| 1787611101 | 34.44° C | 47% | 1005.7 hPa | - | - | - | - |
* Rain since midnight (hover to see other rain measurements)
** Current wind speed in m/s (hover to see current wind gust speed)